createdAt,value
2019-05-26T00:01:02.592Z,7.50
2019-05-26T00:03:31.147Z,7.42
2019-05-26T00:05:59.550Z,7.72
2019-05-26T00:08:28.497Z,8.20
2019-05-26T00:10:57.210Z,8.15
2019-05-26T00:13:25.880Z,8.43
2019-05-26T00:15:54.896Z,7.62
2019-05-26T00:18:23.629Z,8.55
2019-05-26T00:20:51.939Z,8.13
2019-05-26T00:23:20.623Z,8.58
2019-05-26T00:25:49.342Z,8.90
2019-05-26T00:28:18.959Z,8.37
2019-05-26T00:30:47.595Z,8.25
2019-05-26T00:33:16.959Z,8.25
2019-05-26T00:35:45.929Z,7.58
2019-05-26T00:38:14.230Z,7.90
2019-05-26T00:40:42.632Z,8.00
2019-05-26T00:43:11.065Z,9.25
2019-05-26T00:45:41.600Z,9.70
2019-05-26T00:48:10.079Z,8.35
2019-05-26T00:50:38.904Z,8.13
2019-05-26T00:53:07.612Z,8.70
2019-05-26T00:55:36.320Z,9.23
2019-05-26T00:58:05.020Z,8.93
2019-05-26T01:00:40.696Z,9.03
2019-05-26T01:03:10.288Z,9.95
2019-05-26T01:05:39.567Z,9.68
2019-05-26T01:08:08.712Z,10.05
2019-05-26T01:10:37.761Z,11.50
2019-05-26T01:13:06.414Z,10.80
2019-05-26T01:15:34.980Z,11.05
2019-05-26T01:18:04.064Z,10.93
2019-05-26T01:20:32.433Z,10.55
2019-05-26T01:23:02.481Z,11.40
2019-05-26T01:25:31.052Z,11.75
2019-05-26T01:27:59.744Z,12.07
2019-05-26T01:30:38.556Z,11.15
2019-05-26T01:33:07.552Z,11.75
2019-05-26T01:35:39.636Z,12.35
2019-05-26T01:38:22.551Z,11.00
2019-05-26T01:40:43.448Z,13.10
2019-05-26T01:43:12.087Z,12.78
2019-05-26T01:45:42.685Z,12.45
2019-05-26T01:48:11.318Z,11.30
2019-05-26T01:50:39.696Z,12.30
2019-05-26T01:53:08.568Z,13.20
2019-05-26T01:55:37.083Z,12.05
2019-05-26T01:58:06.104Z,12.03
2019-05-26T02:00:35.057Z,12.07
2019-05-26T02:03:04.585Z,13.43
2019-05-26T02:05:33.386Z,12.37
2019-05-26T02:08:02.196Z,14.35
2019-05-26T02:10:31.060Z,12.35
2019-05-26T02:13:00.131Z,14.25
2019-05-26T02:15:29.838Z,12.63
2019-05-26T02:17:58.434Z,12.18
2019-05-26T02:20:26.896Z,12.78
2019-05-26T02:22:55.418Z,14.15
2019-05-26T02:25:24.960Z,12.63
2019-05-26T02:27:53.726Z,12.75
2019-05-26T02:30:23.841Z,12.45
2019-05-26T02:32:53.832Z,12.63
2019-05-26T02:35:23.365Z,12.55
2019-05-26T02:37:51.865Z,13.05
2019-05-26T02:40:24.167Z,14.35
2019-05-26T02:42:52.881Z,13.90
2019-05-26T02:45:23.936Z,14.58
2019-05-26T02:47:54.264Z,13.80
2019-05-26T02:50:23.149Z,14.35
2019-05-26T02:52:51.643Z,13.75
2019-05-26T02:55:20.781Z,14.13
2019-05-26T02:57:49.737Z,14.30
2019-05-26T03:00:44.663Z,13.60
2019-05-26T03:03:15.833Z,13.05
2019-05-26T03:05:45.618Z,12.93
2019-05-26T03:08:15.181Z,14.37
2019-05-26T03:10:44.583Z,13.10
2019-05-26T03:13:15.680Z,14.28
2019-05-26T03:15:46.351Z,15.15
2019-05-26T03:18:15.948Z,14.55
2019-05-26T03:20:44.594Z,14.03
2019-05-26T03:23:15.400Z,14.20
2019-05-26T03:25:44.060Z,14.55
2019-05-26T03:28:12.661Z,14.75
2019-05-26T03:30:41.248Z,15.08
2019-05-26T03:33:11.198Z,14.60
2019-05-26T03:35:40.130Z,13.98
2019-05-26T03:38:08.872Z,13.95
2019-05-26T03:40:37.836Z,13.62
2019-05-26T03:43:06.212Z,13.30
2019-05-26T03:46:34.843Z,15.15
2019-05-26T03:49:05.387Z,14.40
2019-05-26T03:51:34.639Z,13.15
2019-05-26T03:54:03.590Z,13.58
2019-05-26T03:56:32.008Z,14.07
2019-05-26T03:59:00.950Z,13.68
2019-05-26T04:01:29.686Z,13.58
2019-05-26T04:03:58.021Z,12.95
2019-05-26T04:06:26.437Z,13.30
2019-05-26T04:08:55.155Z,13.18
2019-05-26T04:11:23.805Z,13.43
2019-05-26T04:13:52.239Z,13.20
2019-05-26T04:16:20.867Z,11.97
2019-05-26T04:18:49.546Z,13.30
2019-05-26T04:21:18.234Z,13.48
2019-05-26T04:23:46.640Z,12.65
2019-05-26T04:26:15.025Z,13.65
2019-05-26T04:28:44.355Z,12.65
2019-05-26T04:31:13.072Z,13.30
2019-05-26T04:33:42.005Z,13.40
2019-05-26T04:36:10.691Z,11.78
2019-05-26T04:38:39.446Z,12.53
2019-05-26T04:41:08.420Z,12.25
2019-05-26T04:43:37.026Z,12.25
2019-05-26T04:46:05.583Z,12.80
2019-05-26T04:48:34.844Z,11.68
2019-05-26T04:51:05.315Z,10.25
2019-05-26T04:53:33.769Z,10.45
2019-05-26T04:56:02.466Z,8.95
2019-05-26T04:58:31.389Z,9.60
2019-05-26T05:01:00.362Z,10.10
2019-05-26T05:03:29.831Z,9.65
2019-05-26T05:05:58.145Z,8.78
2019-05-26T05:08:26.685Z,9.45
2019-05-26T05:10:55.725Z,9.15
2019-05-26T05:13:25.187Z,8.70
2019-05-26T05:15:53.598Z,7.80
2019-05-26T05:18:22.394Z,8.85
2019-05-26T05:20:51.047Z,8.68
2019-05-26T05:23:19.765Z,10.90
2019-05-26T05:25:48.166Z,9.43
2019-05-26T05:28:16.804Z,8.73
2019-05-26T05:30:46.130Z,8.25
2019-05-26T05:33:15.181Z,10.28
2019-05-26T05:35:44.722Z,8.40
2019-05-26T05:38:13.736Z,7.75
2019-05-26T05:40:56.393Z,9.00
2019-05-26T05:43:13.224Z,7.42
2019-05-26T05:45:41.622Z,7.20
2019-05-26T05:48:10.032Z,8.33
2019-05-26T05:50:39.572Z,7.20
2019-05-26T05:53:10.735Z,7.80
2019-05-26T05:55:39.449Z,7.47
2019-05-26T05:58:07.735Z,7.22
2019-05-26T06:00:36.220Z,7.70
2019-05-26T06:03:04.894Z,6.42
2019-05-26T06:05:33.551Z,7.60
2019-05-26T06:08:02.260Z,8.18
2019-05-26T06:10:31.058Z,7.62
2019-05-26T06:12:59.934Z,7.47
2019-05-26T06:15:29.263Z,7.75
2019-05-26T06:17:57.482Z,8.00
2019-05-26T06:20:26.008Z,7.85
2019-05-26T06:22:54.823Z,9.30
2019-05-26T06:25:23.393Z,8.88
2019-05-26T06:27:52.040Z,7.72
2019-05-26T06:30:21.069Z,7.47
2019-05-26T06:32:49.563Z,6.40
2019-05-26T06:35:18.121Z,6.15
2019-05-26T06:37:48.294Z,9.80
2019-05-26T06:40:16.810Z,6.50
2019-05-26T06:42:46.049Z,6.50
2019-05-26T06:45:16.309Z,6.80
2019-05-26T06:47:45.557Z,7.30
2019-05-26T06:50:14.731Z,6.22
2019-05-26T06:52:43.207Z,6.55
2019-05-26T06:55:14.189Z,6.58
2019-05-26T06:57:43.051Z,6.05
2019-05-26T07:00:12.286Z,6.00
2019-05-26T07:02:40.780Z,6.33
2019-05-26T07:05:09.957Z,5.97
2019-05-26T07:07:38.403Z,5.05
2019-05-26T07:10:07.211Z,4.87
2019-05-26T07:12:35.823Z,4.40
2019-05-26T07:15:05.435Z,4.80
2019-05-26T07:17:34.406Z,4.75
2019-05-26T07:20:03.480Z,2.90
2019-05-26T07:22:32.354Z,3.50
2019-05-26T07:25:01.309Z,4.28
2019-05-26T07:27:30.062Z,4.60
2019-05-26T07:29:58.749Z,4.00
2019-05-26T07:32:27.468Z,3.67
2019-05-26T07:34:56.120Z,4.70
2019-05-26T07:37:24.505Z,4.33
2019-05-26T07:39:54.804Z,4.50
2019-05-26T07:42:23.117Z,4.30
2019-05-26T07:44:51.494Z,4.42
2019-05-26T07:47:20.217Z,4.15
2019-05-26T07:49:48.865Z,3.90
2019-05-26T07:52:17.549Z,3.92
2019-05-26T07:54:46.268Z,3.65
2019-05-26T07:59:47.747Z,4.03
2019-05-26T08:02:16.400Z,4.17
2019-05-26T08:04:45.144Z,4.53
2019-05-26T08:07:13.796Z,4.42
2019-05-26T08:09:42.379Z,6.12
2019-05-26T08:12:25.078Z,4.50
2019-05-26T08:14:41.279Z,5.10
2019-05-26T08:17:10.362Z,5.15
2019-05-26T08:19:38.851Z,3.98
2019-05-26T08:22:07.334Z,4.58
2019-05-26T08:24:36.062Z,4.17
2019-05-26T08:27:05.052Z,4.33
2019-05-26T08:29:33.372Z,5.15
2019-05-26T08:32:01.880Z,4.25
2019-05-26T08:34:30.479Z,4.22
2019-05-26T08:36:59.298Z,4.45
2019-05-26T08:39:27.823Z,3.92
2019-05-26T08:41:57.732Z,4.30
2019-05-26T08:44:26.144Z,3.92
2019-05-26T08:46:54.821Z,5.60
2019-05-26T08:49:23.673Z,4.85
2019-05-26T08:51:52.282Z,5.42
2019-05-26T08:54:21.211Z,5.03
2019-05-26T08:56:49.614Z,5.75
2019-05-26T08:59:20.131Z,4.70
2019-05-26T09:01:48.527Z,4.08
2019-05-26T09:04:17.168Z,4.17
2019-05-26T09:06:45.801Z,3.47
2019-05-26T09:09:14.523Z,4.37
2019-05-26T09:11:42.909Z,3.80
2019-05-26T09:14:11.592Z,3.25
2019-05-26T09:16:40.152Z,3.15
2019-05-26T09:19:08.688Z,3.50
2019-05-26T09:21:37.368Z,3.77
2019-05-26T09:24:06.372Z,4.10
2019-05-26T09:26:35.043Z,3.83
2019-05-26T09:29:04.921Z,3.60
2019-05-26T09:31:34.198Z,3.60
2019-05-26T09:34:04.142Z,4.30
2019-05-26T09:36:32.909Z,4.03
2019-05-26T09:39:01.529Z,3.50
2019-05-26T09:41:30.246Z,4.33
2019-05-26T09:44:00.192Z,3.33
2019-05-26T09:46:29.780Z,4.10
2019-05-26T09:49:00.939Z,4.08
2019-05-26T09:51:29.031Z,3.95
2019-05-26T09:54:01.652Z,3.42
2019-05-26T09:58:56.931Z,3.40
2019-05-26T10:01:27.762Z,4.03
2019-05-26T10:03:56.737Z,3.40
2019-05-26T10:06:25.760Z,3.98
2019-05-26T10:08:54.055Z,3.77
2019-05-26T10:11:22.764Z,4.03
2019-05-26T10:13:51.752Z,4.22
2019-05-26T10:16:20.445Z,3.30
2019-05-26T10:18:49.458Z,4.00
2019-05-26T10:21:18.452Z,3.98
2019-05-26T10:23:47.572Z,4.20
2019-05-26T10:26:16.409Z,4.70
2019-05-26T10:28:45.119Z,3.83
2019-05-26T10:31:13.544Z,3.37
2019-05-26T10:33:42.212Z,3.47
2019-05-26T10:36:11.152Z,3.30
2019-05-26T10:38:40.145Z,5.03
2019-05-26T10:41:08.560Z,3.67
2019-05-26T10:43:46.773Z,4.12
2019-05-26T10:46:08.180Z,3.30
2019-05-26T10:48:36.707Z,4.85
2019-05-26T10:51:07.011Z,3.92
2019-05-26T10:56:04.397Z,4.08
2019-05-26T10:58:33.024Z,4.05
2019-05-26T11:01:03.398Z,4.30
2019-05-26T11:03:34.100Z,4.90
2019-05-26T11:06:02.837Z,3.90
2019-05-26T11:08:31.239Z,5.03
2019-05-26T11:10:59.856Z,3.85
2019-05-26T11:13:28.877Z,4.42
2019-05-26T11:15:57.563Z,4.65
2019-05-26T11:18:26.533Z,4.10
2019-05-26T11:20:55.194Z,3.90
2019-05-26T11:23:24.287Z,4.22
2019-05-26T11:25:53.190Z,4.15
2019-05-26T11:28:21.934Z,4.30
2019-05-26T11:30:50.629Z,4.03
2019-05-26T11:33:19.289Z,4.83
2019-05-26T11:35:47.949Z,4.70
2019-05-26T11:38:17.117Z,5.40
2019-05-26T11:40:48.055Z,4.80
2019-05-26T11:43:17.674Z,4.05
2019-05-26T11:45:46.431Z,5.03
2019-05-26T11:48:16.587Z,5.00
2019-05-26T11:50:45.005Z,4.47
2019-05-26T11:53:13.718Z,4.90
2019-05-26T11:55:42.701Z,4.50
2019-05-26T11:58:11.434Z,4.75
2019-05-26T12:00:40.085Z,4.33
2019-05-26T12:03:09.047Z,4.58
2019-05-26T12:05:39.864Z,3.70
2019-05-26T12:08:08.232Z,5.28
2019-05-26T12:10:36.556Z,4.37
2019-05-26T12:13:05.015Z,4.62
2019-05-26T12:15:34.012Z,4.42
2019-05-26T12:18:03.308Z,4.50
2019-05-26T12:20:32.012Z,4.70
2019-05-26T12:23:01.423Z,4.45
2019-05-26T12:25:30.002Z,4.25
2019-05-26T12:27:59.016Z,4.50
2019-05-26T12:30:27.367Z,4.35
2019-05-26T12:32:56.371Z,3.77
2019-05-26T12:35:41.806Z,4.67
2019-05-26T12:38:10.634Z,4.30
2019-05-26T12:40:39.953Z,3.40
2019-05-26T12:43:09.463Z,4.30
2019-05-26T12:45:37.945Z,4.53
2019-05-26T12:48:06.633Z,4.33
2019-05-26T12:50:37.327Z,3.95
2019-05-26T12:53:06.120Z,4.17
2019-05-26T12:55:34.788Z,4.08
2019-05-26T12:58:03.884Z,3.62
2019-05-26T13:00:47.636Z,4.20
2019-05-26T13:03:03.254Z,5.70
2019-05-26T13:05:31.998Z,5.00
2019-05-26T13:08:02.740Z,4.62
2019-05-26T13:10:31.258Z,4.30
2019-05-26T13:13:00.278Z,4.03
2019-05-26T13:15:29.555Z,3.97
2019-05-26T13:17:57.936Z,4.47
2019-05-26T13:20:26.971Z,4.53
2019-05-26T13:22:55.616Z,4.78
2019-05-26T13:25:24.540Z,4.83
2019-05-26T13:27:52.977Z,5.20
2019-05-26T13:30:22.089Z,4.87
2019-05-26T13:32:50.663Z,4.78
2019-05-26T13:35:20.459Z,4.08
2019-05-26T13:37:48.993Z,4.50
2019-05-26T13:40:17.713Z,4.40
2019-05-26T13:42:46.453Z,4.92
2019-05-26T13:45:22.319Z,4.62
2019-05-26T13:47:46.495Z,4.53
2019-05-26T13:50:15.956Z,5.37
2019-05-26T13:52:46.302Z,4.62
2019-05-26T13:55:16.866Z,4.87
2019-05-26T14:00:14.614Z,3.58
2019-05-26T14:02:43.233Z,4.58
2019-05-26T14:05:12.394Z,4.37
2019-05-26T14:07:41.490Z,4.20
2019-05-26T14:10:12.208Z,3.77
2019-05-26T14:12:40.682Z,3.80
2019-05-26T14:15:12.076Z,4.25
2019-05-26T14:17:41.337Z,4.10
2019-05-26T14:20:12.782Z,3.83
2019-05-26T14:22:41.620Z,3.20
2019-05-26T14:25:10.535Z,4.10
2019-05-26T14:27:38.979Z,3.10
2019-05-26T14:30:09.431Z,3.95
2019-05-26T14:35:06.133Z,3.45
2019-05-26T14:37:34.941Z,2.95
2019-05-26T14:40:03.701Z,4.47
2019-05-26T14:42:32.310Z,3.10
2019-05-26T14:45:04.133Z,3.08
2019-05-26T14:47:31.884Z,3.40
2019-05-26T14:50:00.543Z,2.90
2019-05-26T14:52:30.769Z,2.92
2019-05-26T14:55:00.083Z,3.17
2019-05-26T14:57:31.055Z,2.85
2019-05-26T14:59:59.883Z,3.20
2019-05-26T15:02:29.580Z,2.90
2019-05-26T15:04:58.202Z,2.77
2019-05-26T15:07:26.881Z,2.70
2019-05-26T15:09:55.575Z,2.37
2019-05-26T15:12:26.055Z,2.62
2019-05-26T15:14:54.822Z,2.17
2019-05-26T15:17:23.166Z,2.50
2019-05-26T15:19:51.814Z,2.83
2019-05-26T15:22:20.247Z,3.10
2019-05-26T15:24:48.575Z,2.72
2019-05-26T15:27:17.345Z,3.25
2019-05-26T15:29:46.295Z,2.90
2019-05-26T15:32:15.380Z,2.67
2019-05-26T15:34:43.952Z,3.17
2019-05-26T15:37:12.351Z,3.12
2019-05-26T15:39:40.961Z,2.55
2019-05-26T15:42:09.680Z,3.08
2019-05-26T15:44:38.090Z,2.55
2019-05-26T15:47:07.135Z,2.95
2019-05-26T15:49:35.799Z,2.50
2019-05-26T15:52:04.542Z,2.37
2019-05-26T15:54:33.197Z,2.52
2019-05-26T15:57:02.156Z,2.50
2019-05-26T15:59:30.931Z,2.60
2019-05-26T16:01:59.535Z,2.55
2019-05-26T16:04:27.789Z,3.05
2019-05-26T16:06:56.267Z,2.35
2019-05-26T16:09:24.990Z,2.47
2019-05-26T16:11:53.392Z,2.65
2019-05-26T16:14:23.868Z,2.80
2019-05-26T16:16:52.296Z,3.17
2019-05-26T16:19:21.207Z,2.67
2019-05-26T16:21:49.997Z,3.12
2019-05-26T16:24:18.961Z,2.70
2019-05-26T16:26:47.614Z,2.25
2019-05-26T16:29:16.407Z,2.60
2019-05-26T16:31:45.028Z,2.37
2019-05-26T16:34:13.314Z,2.50
2019-05-26T16:36:42.321Z,2.60
2019-05-26T16:39:10.744Z,2.83
2019-05-26T16:41:39.476Z,2.60
2019-05-26T16:44:08.491Z,2.62
2019-05-26T16:46:37.406Z,3.30
2019-05-26T16:49:06.383Z,3.47
2019-05-26T16:51:35.138Z,2.50
2019-05-26T16:54:04.110Z,2.33
2019-05-26T16:56:32.494Z,2.40
2019-05-26T16:59:03.347Z,3.07
2019-05-26T17:01:31.827Z,3.10
2019-05-26T17:04:00.703Z,2.40
2019-05-26T17:06:29.441Z,2.75
2019-05-26T17:08:58.415Z,2.70
2019-05-26T17:11:27.105Z,2.10
2019-05-26T17:13:56.369Z,2.35
2019-05-26T17:16:27.058Z,2.47
2019-05-26T17:18:55.566Z,2.47
2019-05-26T17:21:23.958Z,2.40
2019-05-26T17:23:52.654Z,2.65
2019-05-26T17:26:21.405Z,2.70
2019-05-26T17:28:50.006Z,3.02
2019-05-26T17:31:19.006Z,2.62
2019-05-26T17:33:47.447Z,2.87
2019-05-26T17:36:16.521Z,2.52
2019-05-26T17:38:45.171Z,2.37
2019-05-26T17:41:14.030Z,3.12
2019-05-26T17:43:43.084Z,2.77
2019-05-26T17:46:15.040Z,2.77
2019-05-26T17:48:42.377Z,2.50
2019-05-26T17:51:10.887Z,4.67
2019-05-26T17:53:39.882Z,2.83
2019-05-26T17:56:08.688Z,2.60
2019-05-26T17:58:37.065Z,3.35
2019-05-26T18:01:06.951Z,2.70
2019-05-26T18:03:35.563Z,2.77
2019-05-26T18:06:04.605Z,2.67
2019-05-26T18:08:36.330Z,2.87
2019-05-26T18:11:03.959Z,2.80
2019-05-26T18:13:32.984Z,3.02
2019-05-26T18:16:01.501Z,2.87
2019-05-26T18:18:32.124Z,2.90
2019-05-26T18:21:02.053Z,3.50
2019-05-26T18:23:30.724Z,3.33
2019-05-26T18:25:59.618Z,2.87
2019-05-26T18:28:28.328Z,3.37
2019-05-26T18:30:57.035Z,3.55
2019-05-26T18:33:25.720Z,3.47
2019-05-26T18:35:54.717Z,3.15
2019-05-26T18:38:23.740Z,2.62
2019-05-26T18:40:52.391Z,3.27
2019-05-26T18:43:21.091Z,3.52
2019-05-26T18:45:49.841Z,3.42
2019-05-26T18:48:18.360Z,3.33
2019-05-26T18:50:47.138Z,3.80
2019-05-26T18:53:15.964Z,3.42
2019-05-26T18:55:44.777Z,3.47
2019-05-26T18:58:13.310Z,3.72
2019-05-26T19:00:42.205Z,4.08
2019-05-26T19:03:12.095Z,5.22
2019-05-26T19:05:41.128Z,4.42
2019-05-26T19:08:10.091Z,4.50
2019-05-26T19:10:38.623Z,3.85
2019-05-26T19:13:10.498Z,4.65
2019-05-26T19:15:37.708Z,4.25
2019-05-26T19:18:19.483Z,4.33
2019-05-26T19:20:38.664Z,4.15
2019-05-26T19:23:07.412Z,4.10
2019-05-26T19:25:36.100Z,4.30
2019-05-26T19:28:04.764Z,4.40
2019-05-26T19:30:33.202Z,4.40
2019-05-26T19:33:02.504Z,3.72
2019-05-26T19:35:30.772Z,3.98
2019-05-26T19:37:59.270Z,4.15
2019-05-26T19:40:27.739Z,4.55
2019-05-26T19:42:56.440Z,4.08
2019-05-26T19:45:25.037Z,4.15
2019-05-26T19:47:53.966Z,4.25
2019-05-26T19:50:22.506Z,4.87
2019-05-26T19:52:51.595Z,4.53
2019-05-26T19:55:20.812Z,4.87
2019-05-26T19:57:49.329Z,4.17
2019-05-26T20:00:19.314Z,4.00
2019-05-26T20:02:47.648Z,4.03
2019-05-26T20:05:17.866Z,4.37
2019-05-26T20:07:46.556Z,5.25
2019-05-26T20:10:16.871Z,4.55
2019-05-26T20:12:45.474Z,5.53
2019-05-26T20:15:14.677Z,5.55
2019-05-26T20:17:43.469Z,5.65
2019-05-26T20:20:14.180Z,5.37
2019-05-26T20:22:44.843Z,6.03
2019-05-26T20:25:14.006Z,6.67
2019-05-26T20:27:42.700Z,6.22
2019-05-26T20:30:13.415Z,5.90
2019-05-26T20:32:42.494Z,5.97
2019-05-26T20:35:11.321Z,6.20
2019-05-26T20:37:40.116Z,5.80
2019-05-26T20:40:08.995Z,6.25
2019-05-26T20:42:37.730Z,7.05
2019-05-26T20:45:06.940Z,6.95
2019-05-26T20:47:35.370Z,6.92
2019-05-26T20:50:04.868Z,6.78
2019-05-26T20:52:33.666Z,6.75
2019-05-26T20:55:02.895Z,7.28
2019-05-26T20:57:31.515Z,7.25
2019-05-26T21:00:00.100Z,6.35
2019-05-26T21:02:28.863Z,7.00
2019-05-26T21:04:57.439Z,6.50
2019-05-26T21:07:28.281Z,6.87
2019-05-26T21:09:56.973Z,7.28
2019-05-26T21:12:25.950Z,7.28
2019-05-26T21:14:54.638Z,7.92
2019-05-26T21:17:23.014Z,7.70
2019-05-26T21:19:51.831Z,7.70
2019-05-26T21:22:20.688Z,7.40
2019-05-26T21:24:50.970Z,7.62
2019-05-26T21:27:19.902Z,6.85
2019-05-26T21:29:48.617Z,8.08
2019-05-26T21:32:17.309Z,8.53
2019-05-26T21:34:46.345Z,7.37
2019-05-26T21:37:15.335Z,7.58
2019-05-26T21:39:43.945Z,7.08
2019-05-26T21:42:15.843Z,7.40
2019-05-26T21:47:11.604Z,7.08
2019-05-26T21:49:40.313Z,6.83
2019-05-26T21:52:09.548Z,7.58
2019-05-26T21:54:41.231Z,7.40
2019-05-26T21:57:09.115Z,7.03
2019-05-26T21:59:37.775Z,6.60
2019-05-26T22:02:06.901Z,7.60
2019-05-26T22:04:35.469Z,7.53
2019-05-26T22:07:05.198Z,8.30
2019-05-26T22:09:34.983Z,8.03
2019-05-26T22:12:04.167Z,8.08
2019-05-26T22:14:32.949Z,7.28
2019-05-26T22:17:01.917Z,6.00
2019-05-26T22:19:30.958Z,6.92
2019-05-26T22:21:59.930Z,6.28
2019-05-26T22:24:30.783Z,5.90
2019-05-26T22:27:01.738Z,6.72
2019-05-26T22:29:30.278Z,5.67
2019-05-26T22:31:59.033Z,6.17
2019-05-26T22:34:28.310Z,6.45
2019-05-26T22:36:57.048Z,6.58
2019-05-26T22:39:25.675Z,6.05
2019-05-26T22:41:54.367Z,6.17
2019-05-26T22:44:22.681Z,5.75
2019-05-26T22:46:51.487Z,6.20
2019-05-26T22:49:20.565Z,6.05
2019-05-26T22:51:49.119Z,5.55
2019-05-26T22:54:18.094Z,6.30
2019-05-26T22:56:46.515Z,5.75
2019-05-26T22:59:14.901Z,6.20
2019-05-26T23:01:43.824Z,5.95
2019-05-26T23:04:12.903Z,6.10
2019-05-26T23:06:41.392Z,6.10
2019-05-26T23:09:10.218Z,6.40
2019-05-26T23:11:40.436Z,6.53
2019-05-26T23:14:09.151Z,6.15
2019-05-26T23:16:37.510Z,6.72
2019-05-26T23:19:18.243Z,5.95
2019-05-26T23:21:36.452Z,7.20
2019-05-26T23:24:05.070Z,5.95
2019-05-26T23:26:33.817Z,7.33
2019-05-26T23:31:33.005Z,6.65
2019-05-26T23:34:01.670Z,5.75
2019-05-26T23:36:30.327Z,6.75
2019-05-26T23:38:58.891Z,5.85
2019-05-26T23:41:27.549Z,5.92
2019-05-26T23:43:56.456Z,6.47
2019-05-26T23:46:25.094Z,6.40
2019-05-26T23:48:53.501Z,7.10
2019-05-26T23:51:22.485Z,6.15
2019-05-26T23:53:51.154Z,6.70
2019-05-26T23:56:19.888Z,7.15
2019-05-26T23:58:48.512Z,7.47
